Time;durP1;ratioP1;P1;durP2;ratioP2;P2;SDS_P1;SDS_P2;PMS_P1;PMS_P2;Temp;Humidity;BMP_temperature;BMP_pressure;BME280_temperature;BME280_humidity;BME280_pressure;Samples;Min_cycle;Max_cycle;Signal;HPM_P1;HPM_P2
2021/11/29 00:01:29;;;;;;;;;;;22.50;33.80;;;;;;478410;249;1251;-46
2021/11/29 00:03:30;;;;;;;;;;;22.50;33.80;;;;;;478360;249;1047;-46
2021/11/29 00:05:32;;;;;;;;;;;22.50;33.80;;;;;;478360;248;1076;-47
2021/11/29 00:07:33;;;;;;;;;;;22.50;33.70;;;;;;478398;249;1750;-47
2021/11/29 00:09:34;;;;;;;;;;;22.50;33.70;;;;;;478505;248;2187;-47
2021/11/29 00:11:36;;;;;;;;;;;22.50;33.70;;;;;;478319;249;1243;-46
2021/11/29 00:13:37;;;;;;;;;;;22.50;33.70;;;;;;478659;248;1209;-47
2021/11/29 00:15:38;;;;;;;;;;;22.50;33.70;;;;;;478572;249;1114;-46
2021/11/29 00:17:39;;;;;;;;;;;22.50;33.70;;;;;;478400;249;1176;-47
2021/11/29 00:19:41;;;;;;;;;;;22.50;33.70;;;;;;478770;249;1084;-46
2021/11/29 00:21:42;;;;;;;;;;;22.60;33.70;;;;;;478350;249;1397;-46
2021/11/29 00:23:45;;;;;;;;;;;22.60;33.70;;;;;;478563;248;1041;-47
2021/11/29 00:25:45;;;;;;;;;;;22.60;33.70;;;;;;478253;249;2316;-46
2021/11/29 00:27:47;;;;;;;;;;;22.50;33.70;;;;;;478292;249;1249;-47
2021/11/29 00:29:48;;;;;;;;;;;22.60;33.70;;;;;;478341;249;2220;-46
2021/11/29 00:31:49;;;;;;;;;;;22.60;33.70;;;;;;478295;249;1159;-46
2021/11/29 00:33:51;;;;;;;;;;;22.60;33.70;;;;;;478274;249;1074;-47
2021/11/29 00:35:52;;;;;;;;;;;22.60;33.70;;;;;;478709;249;1092;-47
2021/11/29 00:37:53;;;;;;;;;;;22.60;33.70;;;;;;478245;249;1155;-46
2021/11/29 00:39:55;;;;;;;;;;;22.60;33.70;;;;;;478350;249;977;-46
2021/11/29 00:41:56;;;;;;;;;;;22.60;33.70;;;;;;478360;249;1296;-46
2021/11/29 00:43:57;;;;;;;;;;;22.60;33.70;;;;;;478527;249;1216;-47
2021/11/29 00:45:59;;;;;;;;;;;22.60;33.70;;;;;;478276;249;1221;-47
2021/11/29 00:48:00;;;;;;;;;;;22.60;33.70;;;;;;478318;249;1213;-47
2021/11/29 00:50:01;;;;;;;;;;;22.60;33.70;;;;;;478284;249;2194;-47
2021/11/29 00:52:03;;;;;;;;;;;22.60;33.70;;;;;;478565;249;1189;-47
2021/11/29 00:54:04;;;;;;;;;;;22.60;33.70;;;;;;478756;249;1170;-47
2021/11/29 00:56:05;;;;;;;;;;;22.70;33.70;;;;;;478569;249;1544;-47
2021/11/29 00:58:07;;;;;;;;;;;22.60;33.60;;;;;;478639;249;1602;-47
2021/11/29 01:00:08;;;;;;;;;;;22.60;33.60;;;;;;478408;249;1146;-47
2021/11/29 01:02:09;;;;;;;;;;;22.60;33.60;;;;;;478411;249;1345;-47
2021/11/29 01:04:10;;;;;;;;;;;22.70;33.70;;;;;;478320;249;1075;-47
2021/11/29 01:06:12;;;;;;;;;;;22.70;33.70;;;;;;478332;249;1407;-46
2021/11/29 01:08:13;;;;;;;;;;;22.70;33.60;;;;;;478322;249;998;-47
2021/11/29 01:10:15;;;;;;;;;;;22.70;33.60;;;;;;478370;249;2190;-47
2021/11/29 01:12:16;;;;;;;;;;;22.70;33.60;;;;;;478614;249;1227;-47
2021/11/29 01:14:17;;;;;;;;;;;22.70;33.60;;;;;;478325;249;1302;-47
2021/11/29 01:16:19;;;;;;;;;;;22.70;33.60;;;;;;478577;248;1275;-46
2021/11/29 01:18:20;;;;;;;;;;;22.70;33.60;;;;;;478765;249;1272;-47
2021/11/29 01:20:21;;;;;;;;;;;22.70;33.60;;;;;;478366;249;1086;-47
2021/11/29 01:22:23;;;;;;;;;;;22.70;33.60;;;;;;478305;249;1206;-46
2021/11/29 01:24:24;;;;;;;;;;;22.70;33.60;;;;;;478820;248;1018;-47
2021/11/29 01:26:25;;;;;;;;;;;22.70;33.60;;;;;;478396;249;1331;-47
2021/11/29 01:28:26;;;;;;;;;;;22.70;33.60;;;;;;478372;248;1215;-47
2021/11/29 01:30:28;;;;;;;;;;;22.70;33.60;;;;;;478377;248;2194;-46
2021/11/29 01:32:30;;;;;;;;;;;22.80;33.60;;;;;;478459;249;1091;-46
2021/11/29 01:34:31;;;;;;;;;;;22.80;33.60;;;;;;478585;248;1015;-47
2021/11/29 01:36:32;;;;;;;;;;;22.70;33.50;;;;;;478493;248;1237;-47
2021/11/29 01:38:34;;;;;;;;;;;22.80;33.60;;;;;;478705;249;1070;-47
2021/11/29 01:40:35;;;;;;;;;;;22.70;33.60;;;;;;478301;249;1269;-47
2021/11/29 01:42:36;;;;;;;;;;;22.70;33.60;;;;;;478276;249;1187;-47
2021/11/29 01:44:38;;;;;;;;;;;22.70;33.50;;;;;;478304;249;1176;-47
2021/11/29 01:46:39;;;;;;;;;;;22.80;33.60;;;;;;478409;249;1521;-47
2021/11/29 01:48:40;;;;;;;;;;;22.80;33.60;;;;;;478810;248;1054;-47
2021/11/29 01:50:42;;;;;;;;;;;22.80;33.60;;;;;;478292;248;2199;-46
2021/11/29 01:52:43;;;;;;;;;;;22.80;33.60;;;;;;478683;249;1193;-46
2021/11/29 01:54:44;;;;;;;;;;;22.70;33.60;;;;;;478373;249;974;-46
2021/11/29 01:56:46;;;;;;;;;;;22.60;33.70;;;;;;478290;249;1193;-47
2021/11/29 01:58:47;;;;;;;;;;;22.50;34.00;;;;;;478492;249;1039;-47
2021/11/29 02:00:48;;;;;;;;;;;22.30;34.30;;;;;;478425;249;1217;-46
2021/11/29 02:02:50;;;;;;;;;;;22.10;34.70;;;;;;478420;249;1045;-47
2021/11/29 02:04:51;;;;;;;;;;;21.90;34.90;;;;;;478432;249;999;-47
2021/11/29 02:06:52;;;;;;;;;;;21.80;35.10;;;;;;478342;249;1181;-46
2021/11/29 02:08:54;;;;;;;;;;;21.70;35.30;;;;;;478302;249;1010;-46
2021/11/29 02:10:55;;;;;;;;;;;21.70;35.40;;;;;;478309;249;2167;-46
2021/11/29 02:12:56;;;;;;;;;;;21.60;35.50;;;;;;478814;248;1256;-46
2021/11/29 02:14:58;;;;;;;;;;;21.60;35.60;;;;;;478600;249;1311;-46
2021/11/29 02:16:59;;;;;;;;;;;21.60;35.60;;;;;;478632;249;1155;-46
2021/11/29 02:19:00;;;;;;;;;;;21.50;35.70;;;;;;478419;249;1051;-46
2021/11/29 02:21:02;;;;;;;;;;;21.40;35.80;;;;;;478471;248;1080;-46
2021/11/29 02:23:03;;;;;;;;;;;21.50;35.90;;;;;;478760;249;1046;-46
2021/11/29 02:25:04;;;;;;;;;;;21.40;36.00;;;;;;478427;249;1003;-46
2021/11/29 02:27:06;;;;;;;;;;;21.30;36.00;;;;;;478467;249;1267;-46
2021/11/29 02:29:07;;;;;;;;;;;21.30;36.00;;;;;;478341;249;1050;-46
2021/11/29 02:31:08;;;;;;;;;;;21.30;36.00;;;;;;478260;249;2194;-46
2021/11/29 02:33:10;;;;;;;;;;;21.20;36.10;;;;;;478320;249;1321;-46
2021/11/29 02:35:11;;;;;;;;;;;21.20;36.10;;;;;;478696;248;1006;-46
2021/11/29 02:37:12;;;;;;;;;;;21.20;36.10;;;;;;478282;249;1210;-46
2021/11/29 02:39:14;;;;;;;;;;;21.20;36.20;;;;;;478695;249;1067;-46
2021/11/29 02:41:15;;;;;;;;;;;21.20;36.20;;;;;;478600;248;1283;-46
2021/11/29 02:43:17;;;;;;;;;;;21.20;36.30;;;;;;478353;249;1204;-46
2021/11/29 02:45:18;;;;;;;;;;;21.10;36.30;;;;;;478350;249;1148;-46
2021/11/29 02:47:19;;;;;;;;;;;21.10;36.30;;;;;;478682;249;1217;-46
2021/11/29 02:49:20;;;;;;;;;;;21.10;36.20;;;;;;478221;249;1534;-46
2021/11/29 02:51:22;;;;;;;;;;;21.10;36.20;;;;;;478326;249;2191;-46
2021/11/29 02:53:23;;;;;;;;;;;21.20;36.20;;;;;;478272;249;1287;-46
2021/11/29 02:55:24;;;;;;;;;;;21.10;36.30;;;;;;478292;249;1090;-46
2021/11/29 02:57:26;;;;;;;;;;;21.10;36.20;;;;;;478326;248;1332;-46
2021/11/29 02:59:27;;;;;;;;;;;21.10;36.30;;;;;;478749;249;1068;-46
2021/11/29 03:01:28;;;;;;;;;;;21.10;36.30;;;;;;478435;248;1483;-46
2021/11/29 03:03:30;;;;;;;;;;;21.00;36.40;;;;;;478321;248;1290;-46
2021/11/29 03:05:31;;;;;;;;;;;21.00;36.40;;;;;;478629;249;1190;-46
2021/11/29 03:07:32;;;;;;;;;;;21.00;36.40;;;;;;478396;248;1968;-46
2021/11/29 03:09:34;;;;;;;;;;;21.00;36.40;;;;;;478334;249;1121;-46
2021/11/29 03:11:35;;;;;;;;;;;21.00;36.50;;;;;;478696;249;2190;-46
2021/11/29 03:13:37;;;;;;;;;;;21.00;36.50;;;;;;478405;249;1241;-46
2021/11/29 03:15:38;;;;;;;;;;;21.00;36.50;;;;;;478489;249;1142;-46
2021/11/29 03:17:39;;;;;;;;;;;20.90;36.50;;;;;;478521;249;1284;-46
2021/11/29 03:19:41;;;;;;;;;;;20.90;36.50;;;;;;478687;248;1077;-46
2021/11/29 03:21:42;;;;;;;;;;;20.90;36.50;;;;;;478439;249;1239;-46
2021/11/29 03:23:43;;;;;;;;;;;20.90;36.50;;;;;;478302;249;1216;-46
2021/11/29 03:25:44;;;;;;;;;;;21.00;36.50;;;;;;478279;249;1218;-46
2021/11/29 03:27:46;;;;;;;;;;;20.90;36.50;;;;;;478292;249;1228;-46
2021/11/29 03:29:48;;;;;;;;;;;21.00;36.50;;;;;;478574;249;1159;-46
2021/11/29 03:31:52;;;;;;;;;;;20.90;36.50;;;;;;478260;248;2187;-46
2021/11/29 03:33:55;;;;;;;;;;;20.90;36.40;;;;;;478640;248;1627;-46
2021/11/29 03:35:55;;;;;;;;;;;20.90;36.40;;;;;;478154;249;1835;-46
2021/11/29 03:37:55;;;;;;;;;;;20.90;36.50;;;;;;478176;249;2441;-46
2021/11/29 03:39:56;;;;;;;;;;;20.90;36.60;;;;;;478357;249;1140;-46
2021/11/29 03:41:58;;;;;;;;;;;20.90;36.60;;;;;;478393;249;1220;-46
2021/11/29 03:43:59;;;;;;;;;;;20.80;36.50;;;;;;478369;249;1003;-46
2021/11/29 03:46:00;;;;;;;;;;;20.90;36.60;;;;;;478561;249;1123;-46
2021/11/29 03:48:02;;;;;;;;;;;20.80;36.60;;;;;;478289;249;1624;-47
2021/11/29 03:50:03;;;;;;;;;;;20.80;36.60;;;;;;478348;249;1057;-46
2021/11/29 03:52:04;;;;;;;;;;;20.80;36.50;;;;;;478365;249;2194;-46
2021/11/29 03:54:06;;;;;;;;;;;20.90;36.50;;;;;;478589;249;1096;-46
2021/11/29 03:56:07;;;;;;;;;;;20.80;36.50;;;;;;478572;249;1092;-46
2021/11/29 03:58:08;;;;;;;;;;;20.90;36.50;;;;;;478444;249;1125;-46
2021/11/29 04:00:10;;;;;;;;;;;20.80;36.60;;;;;;478661;249;1063;-46
2021/11/29 04:02:11;;;;;;;;;;;20.80;36.70;;;;;;478335;249;1202;-46
2021/11/29 04:04:13;;;;;;;;;;;20.80;36.80;;;;;;478686;249;1630;-46
2021/11/29 04:06:14;;;;;;;;;;;20.80;36.70;;;;;;478607;249;1161;-46
2021/11/29 04:08:15;;;;;;;;;;;20.80;36.70;;;;;;478330;249;1245;-46
2021/11/29 04:10:17;;;;;;;;;;;20.80;36.70;;;;;;478719;249;1012;-46
2021/11/29 04:12:18;;;;;;;;;;;20.80;36.60;;;;;;478472;249;2131;-46
2021/11/29 04:14:19;;;;;;;;;;;20.80;36.70;;;;;;478620;249;1052;-46
2021/11/29 04:16:21;;;;;;;;;;;20.80;36.70;;;;;;478271;249;1297;-46
2021/11/29 04:18:22;;;;;;;;;;;20.80;36.70;;;;;;478482;249;1232;-46
2021/11/29 04:20:23;;;;;;;;;;;20.70;36.60;;;;;;478371;249;1238;-46
2021/11/29 04:22:25;;;;;;;;;;;20.80;36.70;;;;;;478327;249;1054;-46
2021/11/29 04:24:26;;;;;;;;;;;20.70;36.60;;;;;;478510;249;1185;-46
2021/11/29 04:26:29;;;;;;;;;;;20.70;36.60;;;;;;478568;249;1145;-46
2021/11/29 04:28:28;;;;;;;;;;;20.80;36.70;;;;;;478513;249;2174;-46
2021/11/29 04:30:30;;;;;;;;;;;20.70;36.70;;;;;;478692;249;1596;-46
2021/11/29 04:32:31;;;;;;;;;;;20.70;36.70;;;;;;478416;249;2111;-46
2021/11/29 04:34:33;;;;;;;;;;;20.70;36.60;;;;;;478311;249;1191;-46
2021/11/29 04:36:35;;;;;;;;;;;20.70;36.70;;;;;;478383;249;1505;-46
2021/11/29 04:38:36;;;;;;;;;;;20.70;36.70;;;;;;478741;248;1073;-47
2021/11/29 04:40:37;;;;;;;;;;;20.70;36.70;;;;;;478268;249;1315;-46
2021/11/29 04:42:39;;;;;;;;;;;20.70;36.70;;;;;;478277;249;1244;-46
2021/11/29 04:44:40;;;;;;;;;;;20.70;36.70;;;;;;478624;249;1129;-46
2021/11/29 04:46:41;;;;;;;;;;;20.60;36.70;;;;;;478338;248;1230;-46
2021/11/29 04:48:43;;;;;;;;;;;20.70;36.70;;;;;;478380;249;1110;-47
2021/11/29 04:50:44;;;;;;;;;;;20.70;36.70;;;;;;478238;249;2135;-46
2021/11/29 04:52:45;;;;;;;;;;;20.70;36.70;;;;;;478364;249;1164;-46
2021/11/29 04:54:47;;;;;;;;;;;20.70;36.70;;;;;;478368;249;1032;-47
2021/11/29 04:56:48;;;;;;;;;;;20.60;36.70;;;;;;478275;249;1358;-46
2021/11/29 04:58:50;;;;;;;;;;;20.70;36.70;;;;;;478417;249;1076;-46
2021/11/29 05:00:52;;;;;;;;;;;20.70;36.70;;;;;;478508;249;1425;-46
2021/11/29 05:02:53;;;;;;;;;;;20.60;36.70;;;;;;478332;249;1213;-46
2021/11/29 05:04:54;;;;;;;;;;;20.60;36.70;;;;;;478325;249;1149;-46
2021/11/29 05:06:56;;;;;;;;;;;20.60;36.70;;;;;;478244;249;1176;-46
2021/11/29 05:08:57;;;;;;;;;;;20.70;36.80;;;;;;478432;249;1054;-46
2021/11/29 05:10:58;;;;;;;;;;;20.60;36.70;;;;;;478540;248;2119;-46
2021/11/29 05:13:00;;;;;;;;;;;20.60;36.70;;;;;;478317;249;1217;-46
2021/11/29 05:15:01;;;;;;;;;;;20.70;36.70;;;;;;478366;249;1059;-46
2021/11/29 05:17:02;;;;;;;;;;;20.60;36.70;;;;;;478246;249;1251;-46
2021/11/29 05:19:04;;;;;;;;;;;20.60;36.70;;;;;;478473;249;1081;-46
2021/11/29 05:21:05;;;;;;;;;;;20.60;36.70;;;;;;478267;249;1463;-47
2021/11/29 05:23:06;;;;;;;;;;;20.70;36.70;;;;;;478545;249;1200;-46
2021/11/29 05:25:08;;;;;;;;;;;20.60;36.70;;;;;;478642;249;1068;-46
2021/11/29 05:27:09;;;;;;;;;;;20.60;36.70;;;;;;478434;249;1269;-46
2021/11/29 05:29:14;;;;;;;;;;;20.60;36.70;;;;;;478260;249;1015;-46
2021/11/29 05:31:12;;;;;;;;;;;20.60;36.70;;;;;;477991;249;2377;-46
2021/11/29 05:33:13;;;;;;;;;;;20.60;36.70;;;;;;478246;249;1288;-47
2021/11/29 05:35:15;;;;;;;;;;;20.60;36.70;;;;;;478522;249;991;-46
2021/11/29 05:37:16;;;;;;;;;;;20.60;36.70;;;;;;478229;249;1036;-46
2021/11/29 05:39:17;;;;;;;;;;;20.60;36.70;;;;;;478218;249;1210;-46
2021/11/29 05:41:19;;;;;;;;;;;20.60;36.60;;;;;;478598;249;1114;-46
2021/11/29 05:43:20;;;;;;;;;;;20.60;36.80;;;;;;478439;249;1099;-46
2021/11/29 05:45:22;;;;;;;;;;;20.60;36.80;;;;;;477950;249;1918;-46
2021/11/29 05:47:23;;;;;;;;;;;20.50;36.70;;;;;;478214;249;1549;-46
2021/11/29 05:49:24;;;;;;;;;;;20.60;36.80;;;;;;478680;249;1114;-46
2021/11/29 05:51:26;;;;;;;;;;;20.60;36.70;;;;;;478437;249;2206;-46
2021/11/29 05:53:27;;;;;;;;;;;20.60;36.80;;;;;;478301;249;2144;-46
2021/11/29 05:55:28;;;;;;;;;;;20.60;36.80;;;;;;478176;249;1103;-46
2021/11/29 05:57:30;;;;;;;;;;;20.60;36.70;;;;;;478101;249;1237;-46
2021/11/29 05:59:31;;;;;;;;;;;20.60;36.70;;;;;;478257;249;1066;-46
2021/11/29 06:01:32;;;;;;;;;;;20.50;36.70;;;;;;478083;249;1334;-46
2021/11/29 06:03:34;;;;;;;;;;;20.60;36.80;;;;;;478278;249;1203;-46
2021/11/29 06:05:35;;;;;;;;;;;20.60;36.70;;;;;;478294;249;1005;-46
2021/11/29 06:07:36;;;;;;;;;;;20.60;36.80;;;;;;478189;249;1186;-47
2021/11/29 06:09:38;;;;;;;;;;;20.60;36.80;;;;;;478455;249;1167;-46
2021/11/29 06:11:39;;;;;;;;;;;20.60;36.80;;;;;;478159;249;2139;-46
2021/11/29 06:13:40;;;;;;;;;;;20.60;36.80;;;;;;478129;249;1059;-46
2021/11/29 06:15:42;;;;;;;;;;;20.60;36.80;;;;;;478160;249;1124;-46
2021/11/29 06:17:43;;;;;;;;;;;20.50;36.70;;;;;;478146;249;1151;-46
2021/11/29 06:19:44;;;;;;;;;;;20.60;36.70;;;;;;478111;249;1069;-46
2021/11/29 06:21:46;;;;;;;;;;;20.60;36.70;;;;;;478115;249;1336;-46
2021/11/29 06:23:47;;;;;;;;;;;20.60;36.80;;;;;;477916;249;1089;-46
2021/11/29 06:25:48;;;;;;;;;;;20.60;36.80;;;;;;478052;249;1047;-46
2021/11/29 06:27:50;;;;;;;;;;;20.50;36.80;;;;;;478069;249;1087;-46
2021/11/29 06:29:51;;;;;;;;;;;20.50;36.80;;;;;;478267;249;1044;-46
2021/11/29 06:31:52;;;;;;;;;;;20.50;36.80;;;;;;478072;249;2140;-46
2021/11/29 06:33:54;;;;;;;;;;;20.50;36.80;;;;;;477986;249;1198;-46
2021/11/29 06:35:55;;;;;;;;;;;20.50;36.70;;;;;;478012;249;1451;-46
2021/11/29 06:37:56;;;;;;;;;;;20.50;36.70;;;;;;478002;249;1116;-46
2021/11/29 06:39:58;;;;;;;;;;;20.50;36.80;;;;;;477922;249;1375;-46
2021/11/29 06:42:01;;;;;;;;;;;20.60;36.70;;;;;;478144;249;1100;-46
2021/11/29 06:44:01;;;;;;;;;;;20.60;36.80;;;;;;477978;249;2084;-46
2021/11/29 06:46:02;;;;;;;;;;;20.50;36.70;;;;;;478046;249;1179;-46
2021/11/29 06:48:03;;;;;;;;;;;20.60;36.80;;;;;;477913;249;1314;-46
2021/11/29 06:50:05;;;;;;;;;;;20.60;36.80;;;;;;478142;249;1088;-46
2021/11/29 06:52:06;;;;;;;;;;;20.50;36.70;;;;;;477934;249;2182;-46
2021/11/29 06:54:07;;;;;;;;;;;20.50;36.90;;;;;;478004;249;1069;-46
2021/11/29 06:56:09;;;;;;;;;;;20.50;36.80;;;;;;478076;249;1373;-46
2021/11/29 06:58:10;;;;;;;;;;;20.50;36.80;;;;;;478076;249;1047;-46
2021/11/29 07:00:11;;;;;;;;;;;20.60;36.80;;;;;;477988;249;1128;-46
2021/11/29 07:02:13;;;;;;;;;;;20.50;36.80;;;;;;477877;249;1156;-46
2021/11/29 07:04:18;;;;;;;;;;;20.50;36.80;;;;;;477832;249;1413;-46
2021/11/29 07:06:15;;;;;;;;;;;20.50;36.80;;;;;;477653;248;1251;-46
2021/11/29 07:08:17;;;;;;;;;;;20.50;36.70;;;;;;478103;249;1071;-46
2021/11/29 07:10:18;;;;;;;;;;;20.60;36.70;;;;;;477992;249;1111;-45
2021/11/29 07:12:19;;;;;;;;;;;20.50;36.70;;;;;;477856;249;2191;-46
2021/11/29 07:14:21;;;;;;;;;;;20.50;36.80;;;;;;477840;249;1163;-47
2021/11/29 07:16:22;;;;;;;;;;;20.50;36.70;;;;;;478097;249;1508;-46
2021/11/29 07:18:23;;;;;;;;;;;20.50;36.70;;;;;;477988;249;1214;-46
2021/11/29 07:20:25;;;;;;;;;;;20.50;36.70;;;;;;477884;248;1160;-46
2021/11/29 07:22:26;;;;;;;;;;;20.50;36.70;;;;;;477819;249;1212;-47
2021/11/29 07:24:28;;;;;;;;;;;20.50;36.70;;;;;;477973;248;1078;-46
2021/11/29 07:26:29;;;;;;;;;;;20.50;36.70;;;;;;477980;248;2427;-46
2021/11/29 07:28:30;;;;;;;;;;;20.50;36.80;;;;;;477874;248;1163;-46
2021/11/29 07:30:31;;;;;;;;;;;20.50;36.70;;;;;;478013;249;1117;-46
2021/11/29 07:32:33;;;;;;;;;;;20.40;36.70;;;;;;477836;249;2203;-46
2021/11/29 07:34:34;;;;;;;;;;;20.50;36.70;;;;;;477812;249;1153;-46
2021/11/29 07:36:35;;;;;;;;;;;20.50;36.60;;;;;;477618;249;1264;-46
2021/11/29 07:38:37;;;;;;;;;;;20.50;36.50;;;;;;477717;249;1213;-46
2021/11/29 07:40:38;;;;;;;;;;;20.50;36.50;;;;;;477683;249;1216;-46
2021/11/29 07:42:39;;;;;;;;;;;20.50;36.50;;;;;;477669;249;1192;-46
2021/11/29 07:44:41;;;;;;;;;;;20.50;36.60;;;;;;477667;249;1118;-46
2021/11/29 07:46:42;;;;;;;;;;;20.60;36.50;;;;;;477778;248;1433;-46
2021/11/29 07:48:43;;;;;;;;;;;20.50;36.40;;;;;;477794;249;1409;-45
2021/11/29 07:50:45;;;;;;;;;;;20.50;36.40;;;;;;477778;248;1519;-46
2021/11/29 07:52:46;;;;;;;;;;;20.50;36.50;;;;;;477370;248;2195;-46
2021/11/29 07:54:47;;;;;;;;;;;20.50;36.50;;;;;;477705;248;1094;-46
2021/11/29 07:56:49;;;;;;;;;;;20.40;36.50;;;;;;477524;249;1268;-46
2021/11/29 07:58:50;;;;;;;;;;;20.40;36.50;;;;;;477673;249;1287;-46
2021/11/29 08:00:52;;;;;;;;;;;20.40;36.50;;;;;;477724;248;1163;-46
2021/11/29 08:02:53;;;;;;;;;;;20.40;36.50;;;;;;477673;249;2162;-46
2021/11/29 08:04:54;;;;;;;;;;;20.40;36.40;;;;;;477603;249;1193;-46
2021/11/29 08:06:55;;;;;;;;;;;20.50;36.40;;;;;;477385;249;1485;-46
2021/11/29 08:08:57;;;;;;;;;;;20.50;36.40;;;;;;477531;249;1237;-46
2021/11/29 08:10:58;;;;;;;;;;;20.50;36.30;;;;;;477541;248;1169;-46
2021/11/29 08:12:59;;;;;;;;;;;20.40;36.30;;;;;;477622;249;2207;-46
2021/11/29 08:15:01;;;;;;;;;;;20.40;36.30;;;;;;477486;248;1097;-46
2021/11/29 08:17:02;;;;;;;;;;;20.40;36.40;;;;;;477454;249;1291;-46
2021/11/29 08:19:03;;;;;;;;;;;20.40;36.30;;;;;;477587;249;1199;-46
2021/11/29 08:21:05;;;;;;;;;;;20.40;36.30;;;;;;477785;249;1313;-46
2021/11/29 08:23:08;;;;;;;;;;;20.40;36.20;;;;;;477508;249;1216;-46
2021/11/29 08:25:07;;;;;;;;;;;20.50;36.20;;;;;;477489;249;1379;-46
2021/11/29 08:27:09;;;;;;;;;;;20.40;36.20;;;;;;477623;249;1316;-46
2021/11/29 08:29:10;;;;;;;;;;;20.40;36.20;;;;;;477570;249;1154;-46
2021/11/29 08:31:11;;;;;;;;;;;20.40;36.20;;;;;;477431;248;1116;-46
2021/11/29 08:33:13;;;;;;;;;;;20.40;36.20;;;;;;477516;249;2211;-46
2021/11/29 08:35:14;;;;;;;;;;;20.40;36.10;;;;;;477465;249;1233;-46
2021/11/29 08:37:16;;;;;;;;;;;20.40;36.10;;;;;;477200;249;1142;-46
2021/11/29 08:39:17;;;;;;;;;;;20.40;36.20;;;;;;477679;249;1073;-46
2021/11/29 08:41:18;;;;;;;;;;;20.40;36.20;;;;;;477460;249;1118;-46
2021/11/29 08:43:20;;;;;;;;;;;20.30;36.10;;;;;;477596;249;1265;-46
2021/11/29 08:45:21;;;;;;;;;;;20.40;36.20;;;;;;477664;249;1092;-46
2021/11/29 08:47:24;;;;;;;;;;;20.40;36.10;;;;;;477444;249;1135;-46
2021/11/29 08:49:23;;;;;;;;;;;20.40;36.10;;;;;;477367;248;1945;-46
2021/11/29 08:51:25;;;;;;;;;;;20.40;36.10;;;;;;477575;248;1215;-46
2021/11/29 08:53:26;;;;;;;;;;;20.40;36.10;;;;;;477439;249;2202;-46
2021/11/29 08:55:27;;;;;;;;;;;20.40;36.10;;;;;;477390;249;1070;-46
2021/11/29 08:57:29;;;;;;;;;;;20.40;36.10;;;;;;477241;249;1254;-46
2021/11/29 08:59:30;;;;;;;;;;;20.40;36.00;;;;;;477660;249;1056;-46
2021/11/29 09:01:32;;;;;;;;;;;20.40;36.00;;;;;;477566;248;1356;-46
2021/11/29 09:03:33;;;;;;;;;;;20.40;36.00;;;;;;477707;248;1065;-46
2021/11/29 09:05:34;;;;;;;;;;;20.40;36.00;;;;;;477535;249;1177;-46
2021/11/29 09:07:36;;;;;;;;;;;20.40;36.00;;;;;;477422;249;1202;-46
2021/11/29 09:09:37;;;;;;;;;;;20.40;35.90;;;;;;477606;249;1115;-46
2021/11/29 09:11:38;;;;;;;;;;;20.40;35.90;;;;;;477528;248;1145;-47
2021/11/29 09:13:40;;;;;;;;;;;20.40;35.90;;;;;;477570;249;2140;-46
2021/11/29 09:15:42;;;;;;;;;;;20.40;36.00;;;;;;477518;249;1185;-46
2021/11/29 09:17:42;;;;;;;;;;;20.30;35.90;;;;;;477818;249;1545;-46
2021/11/29 09:19:44;;;;;;;;;;;20.30;36.00;;;;;;477525;249;1160;-46
2021/11/29 09:21:45;;;;;;;;;;;20.30;36.00;;;;;;477422;249;1345;-46
2021/11/29 09:23:46;;;;;;;;;;;20.30;35.90;;;;;;477561;249;1058;-46
2021/11/29 09:25:48;;;;;;;;;;;20.30;35.90;;;;;;477360;249;1214;-46
2021/11/29 09:27:49;;;;;;;;;;;20.30;35.90;;;;;;477408;248;1152;-46
2021/11/29 09:29:50;;;;;;;;;;;20.30;35.80;;;;;;477663;249;1079;-46
2021/11/29 09:31:52;;;;;;;;;;;20.30;35.80;;;;;;477489;249;1248;-46
2021/11/29 09:33:53;;;;;;;;;;;20.30;35.90;;;;;;477577;249;2195;-46
2021/11/29 09:35:54;;;;;;;;;;;20.30;35.90;;;;;;477746;249;1198;-46
2021/11/29 09:37:56;;;;;;;;;;;20.30;35.80;;;;;;477644;249;1226;-47
2021/11/29 09:39:58;;;;;;;;;;;20.30;35.90;;;;;;477713;249;1126;-46
2021/11/29 09:42:00;;;;;;;;;;;20.40;35.90;;;;;;477642;248;1415;-46
2021/11/29 09:44:01;;;;;;;;;;;20.40;35.80;;;;;;477506;248;2036;-46
2021/11/29 09:46:02;;;;;;;;;;;20.30;35.80;;;;;;477468;249;2438;-46
2021/11/29 09:48:03;;;;;;;;;;;20.40;35.80;;;;;;477579;249;1235;-46
2021/11/29 09:50:05;;;;;;;;;;;20.30;35.80;;;;;;477546;249;1207;-46
2021/11/29 09:52:06;;;;;;;;;;;20.40;35.80;;;;;;477650;248;1343;-45
2021/11/29 09:54:08;;;;;;;;;;;20.30;35.60;;;;;;477729;249;2190;-46
2021/11/29 09:56:10;;;;;;;;;;;20.30;35.60;;;;;;477686;249;1534;-46
2021/11/29 09:58:10;;;;;;;;;;;20.30;35.60;;;;;;477768;248;1235;-46
2021/11/29 10:00:12;;;;;;;;;;;20.30;35.70;;;;;;477574;248;1120;-46
2021/11/29 10:02:14;;;;;;;;;;;20.30;35.70;;;;;;477460;248;1134;-46
2021/11/29 10:04:15;;;;;;;;;;;20.30;35.70;;;;;;477729;249;1139;-46
2021/11/29 10:06:16;;;;;;;;;;;20.30;35.60;;;;;;477540;249;1472;-45
2021/11/29 10:08:18;;;;;;;;;;;20.30;35.60;;;;;;477707;249;1076;-46
2021/11/29 10:10:19;;;;;;;;;;;20.40;35.50;;;;;;477687;249;1072;-46
2021/11/29 10:12:20;;;;;;;;;;;20.30;35.50;;;;;;477443;249;1081;-46
2021/11/29 10:14:23;;;;;;;;;;;20.30;35.60;;;;;;477362;249;2195;-46
2021/11/29 10:16:23;;;;;;;;;;;20.30;35.60;;;;;;477483;249;2167;-46
2021/11/29 10:18:24;;;;;;;;;;;20.30;35.50;;;;;;477583;248;1118;-46
2021/11/29 10:20:26;;;;;;;;;;;20.30;35.50;;;;;;477435;249;1179;-46
2021/11/29 10:22:28;;;;;;;;;;;20.30;35.50;;;;;;477332;249;1250;-46
2021/11/29 10:24:28;;;;;;;;;;;20.30;35.50;;;;;;477423;248;1938;-46
2021/11/29 10:26:30;;;;;;;;;;;20.30;35.50;;;;;;477541;248;1262;-46
2021/11/29 10:28:31;;;;;;;;;;;20.30;35.50;;;;;;477451;249;1198;-46
2021/11/29 10:30:33;;;;;;;;;;;20.30;35.50;;;;;;477272;248;1196;-47
2021/11/29 10:32:34;;;;;;;;;;;20.30;35.50;;;;;;477499;249;2252;-46
2021/11/29 10:34:36;;;;;;;;;;;20.30;35.50;;;;;;477266;249;2203;-46
2021/11/29 10:36:36;;;;;;;;;;;20.30;35.50;;;;;;477298;249;2248;-46
2021/11/29 10:38:38;;;;;;;;;;;20.30;35.50;;;;;;478070;249;1059;-46
2021/11/29 10:40:39;;;;;;;;;;;20.30;35.50;;;;;;477348;249;1261;-46
2021/11/29 10:42:40;;;;;;;;;;;20.30;35.50;;;;;;477631;248;1039;-46
2021/11/29 10:44:42;;;;;;;;;;;20.30;35.50;;;;;;477488;249;1069;-46
2021/11/29 10:46:43;;;;;;;;;;;20.30;35.50;;;;;;477495;249;1393;-46
2021/11/29 10:48:44;;;;;;;;;;;20.30;35.50;;;;;;477506;249;1297;-46
2021/11/29 10:50:46;;;;;;;;;;;20.40;35.40;;;;;;477481;249;1293;-46
2021/11/29 10:52:47;;;;;;;;;;;20.30;35.40;;;;;;477407;249;1174;-46
2021/11/29 10:54:48;;;;;;;;;;;20.30;35.40;;;;;;477411;248;1186;-46
2021/11/29 10:56:50;;;;;;;;;;;20.30;35.40;;;;;;477231;249;1402;-46
2021/11/29 10:58:51;;;;;;;;;;;20.30;35.40;;;;;;477258;249;1160;-46
2021/11/29 11:00:54;;;;;;;;;;;20.30;35.40;;;;;;477428;248;1358;-46
2021/11/29 11:02:54;;;;;;;;;;;20.30;35.40;;;;;;477247;249;2526;-46
2021/11/29 11:04:55;;;;;;;;;;;20.30;35.40;;;;;;477495;249;1074;-46
2021/11/29 11:06:56;;;;;;;;;;;20.30;35.40;;;;;;477582;249;1526;-46
2021/11/29 11:08:58;;;;;;;;;;;20.30;35.40;;;;;;477539;249;1122;-46
2021/11/29 11:10:59;;;;;;;;;;;20.30;35.40;;;;;;477381;249;1338;-46
2021/11/29 11:13:02;;;;;;;;;;;20.30;35.40;;;;;;477420;249;2144;-46
2021/11/29 11:15:04;;;;;;;;;;;20.40;35.30;;;;;;477500;248;1304;-46
2021/11/29 11:17:04;;;;;;;;;;;20.30;35.30;;;;;;477534;249;2281;-46
2021/11/29 11:19:05;;;;;;;;;;;20.30;35.30;;;;;;478304;249;1218;-46
2021/11/29 11:21:06;;;;;;;;;;;20.30;35.30;;;;;;478159;249;1203;-46
2021/11/29 11:23:08;;;;;;;;;;;20.40;35.30;;;;;;478197;249;1082;-46
2021/11/29 11:25:09;;;;;;;;;;;20.30;35.30;;;;;;477538;249;1107;-46
2021/11/29 11:27:10;;;;;;;;;;;20.30;35.30;;;;;;477317;249;1333;-46
2021/11/29 11:29:12;;;;;;;;;;;20.30;35.30;;;;;;477587;249;1138;-46
2021/11/29 11:31:13;;;;;;;;;;;20.30;35.30;;;;;;477491;249;1224;-46
2021/11/29 11:33:16;;;;;;;;;;;20.30;35.40;;;;;;477616;249;2191;-46
2021/11/29 11:35:16;;;;;;;;;;;20.30;35.30;;;;;;477559;249;2162;-46
2021/11/29 11:37:17;;;;;;;;;;;20.30;35.30;;;;;;477600;249;1225;-46
2021/11/29 11:39:19;;;;;;;;;;;20.30;35.20;;;;;;477654;249;1086;-46
2021/11/29 11:41:20;;;;;;;;;;;20.30;35.20;;;;;;477538;249;1364;-46
2021/11/29 11:43:21;;;;;;;;;;;20.30;35.20;;;;;;477633;249;1042;-46
2021/11/29 11:45:23;;;;;;;;;;;20.30;35.20;;;;;;477612;249;1068;-46
2021/11/29 11:47:24;;;;;;;;;;;20.30;35.20;;;;;;477510;249;1148;-46
2021/11/29 11:49:25;;;;;;;;;;;20.30;35.20;;;;;;477520;249;1086;-46
2021/11/29 11:51:27;;;;;;;;;;;20.30;35.20;;;;;;477528;249;1443;-46
2021/11/29 11:53:28;;;;;;;;;;;20.30;35.20;;;;;;477612;249;2135;-46
2021/11/29 11:55:32;;;;;;;;;;;20.30;35.20;;;;;;477331;249;1077;-46
2021/11/29 11:57:31;;;;;;;;;;;20.30;35.20;;;;;;477901;249;1650;-46